Bookmark and Share
Track history (hours):
 

Pacific Dawn

Last reported at 2014-Apr-19 09:33 UTC. Time now 2014-Apr-20 19:08 UTC.
Position S 26°37' E 153°30'.

Length 245 m; draft 8.4 m.

Type: Passenger vessel. MMSI: 235059368.

NotesDate/timePositionNaut miles runAvg speedWind from/ knotsBaromVisibWave heightAir tempDewpointWater temp
2014-Apr-19 09:33S 26°37' E 153°30'1717.2
2014-Apr-19 08:33S 26°42' E 153°12'1211.8
2014-Apr-19 07:33S 26°53' E 153°10'1717.3
2014-Apr-19 06:34S 27°08' E 153°21'1615.5
2014-Apr-19 05:33S 27°21' E 153°11'8 8.0
2014-Apr-19 04:32S 27°27' E 153°05'1 0.9
2014-Apr-19 03:25S 27°26' E 153°04'0 0.0
2014-Apr-18 22:22S 27°26' E 153°04'0 0.0
2014-Apr-18 19:31S 27°26' E 153°04'4 4.3
2014-Apr-18 18:33S 27°25' E 153°08'9 9.5
2014-Apr-18 17:33S 27°17' E 153°14'2 2.0
2014-Apr-18 16:31S 27°17' E 153°17'0 0.0
2014-Apr-18 15:34S 27°17' E 153°17'0 0.0
2014-Apr-18 14:34S 27°17' E 153°17'0 0.0
2014-Apr-18 13:34S 27°17' E 153°17'0 0.0
2014-Apr-18 12:31S 27°17' E 153°17'0 0.0
2014-Apr-18 11:31S 27°17' E 153°17'8 8.2
2014-Apr-18 10:33S 27°10' E 153°20'0 0.1
2014-Apr-18 09:31S 27°10' E 153°20'0 0.0
2014-Apr-18 08:32S 27°10' E 153°20'0 0.0
2014-Apr-18 07:31S 27°10' E 153°20'0 0.0
2014-Apr-18 06:29S 27°10' E 153°20'0 0.0
2014-Apr-18 05:32S 27°10' E 153°20'0 0.0
2014-Apr-18 04:31S 27°10' E 153°20'0 0.0
2014-Apr-18 03:31S 27°10' E 153°20'0 0.0
2014-Apr-18 02:31S 27°10' E 153°20'0 0.1
2014-Apr-18 01:31S 27°10' E 153°20'0 0.0
2014-Apr-18 00:31S 27°10' E 153°20'0 0.0
2014-Apr-17 23:31S 27°10' E 153°20'0 0.1
2014-Apr-17 22:31S 27°10' E 153°20'0 0.0
2014-Apr-17 21:29S 27°10' E 153°20'8 8.9
2014-Apr-17 20:33S 27°03' E 153°17'1515.0
2014-Apr-17 19:34S 26°49' E 153°10'9 8.8
2014-Apr-17 18:34S 26°45' E 153°18'1615.7
2014-Apr-17 17:33S 26°54' E 153°33'1615.7
2014-Apr-17 16:33S 27°04' E 153°46'1313.3
2014-Apr-17 15:33S 27°18' E 153°48'1312.5
2014-Apr-17 14:29S 27°31' E 153°49'1212.5
2014-Apr-17 13:33S 27°43' E 153°50'1312.6
2014-Apr-17 12:33S 27°55' E 153°51'1212.3
2014-Apr-17 11:33S 28°07' E 153°52'27511.9
2014-Apr-16 12:31S 32°36' E 152°46'1111.8
2014-Apr-16 11:33S 32°44' E 152°36'1313.0
2014-Apr-16 10:33S 32°53' E 152°24'1716.5
2014-Apr-16 09:33S 32°53' E 152°04'1414.4
2014-Apr-16 08:33S 32°55' E 151°47'1 0.3
2014-Apr-16 05:32S 32°55' E 151°46'0 0.0
2014-Apr-16 04:32S 32°55' E 151°46'0 0.0
2014-Apr-16 03:32S 32°55' E 151°46'0 0.0
2014-Apr-16 02:20S 32°55' E 151°46'0 0.0
2014-Apr-16 01:29S 32°55' E 151°46'0 0.0
2014-Apr-16 00:28S 32°55' E 151°46'0 0.0
2014-Apr-15 23:31S 32°55' E 151°46'0 0.0
2014-Apr-15 22:31S 32°55' E 151°46'0 0.0
2014-Apr-15 21:19S 32°55' E 151°46'0 0.1
2014-Apr-15 20:33S 32°55' E 151°47'4 3.7
2014-Apr-15 19:33S 32°55' E 151°51'9 9.4
2014-Apr-15 18:33S 32°60' E 152°01'1010.4
2014-Apr-15 17:33S 33°09' E 152°06'7 0.1
2014-Apr-13 15:34S 33°14' E 152°02'1211.8
2014-Apr-13 14:34S 33°06' E 152°12'1212.1
2014-Apr-13 13:34S 32°57' E 152°22'1413.7
2014-Apr-13 12:33S 32°47' E 152°33'1414.2
2014-Apr-13 11:33S 32°37' E 152°45'27414.4
2014-Apr-12 16:28S 28°09' E 153°52'1819.2
2014-Apr-12 15:33S 27°52' E 153°51'1919.3
2014-Apr-12 14:34S 27°32' E 153°49'1919.4
2014-Apr-12 13:33S 27°13' E 153°46'1817.9
2014-Apr-12 12:34S 26°58' E 153°36'1817.7
2014-Apr-12 11:34S 26°46' E 153°20'8 8.5
2014-Apr-12 10:33S 26°48' E 153°11'1313.4
2014-Apr-12 09:33S 27°01' E 153°15'1414.2
2014-Apr-12 08:33S 27°14' E 153°20'1413.5
2014-Apr-12 07:33S 27°24' E 153°09'5 5.5
2014-Apr-12 06:33S 27°27' E 153°04'0 0.1
2014-Apr-12 05:31S 27°26' E 153°04'0 0.0
2014-Apr-12 04:32S 27°26' E 153°04'0 0.0
2014-Apr-12 03:31S 27°26' E 153°04'0 0.0
2014-Apr-12 02:33S 27°26' E 153°04'0 0.0
2014-Apr-12 01:33S 27°26' E 153°04'0 0.0
2014-Apr-12 00:33S 27°26' E 153°04'0 0.0
2014-Apr-11 23:14S 27°26' E 153°04'0 0.0
2014-Apr-11 22:33S 27°26' E 153°04'0 0.0
2014-Apr-11 21:33S 27°26' E 153°04'0 0.0
2014-Apr-11 20:33S 27°26' E 153°04'0 0.2
2014-Apr-11 19:33S 27°27' E 153°04'7 7.0
2014-Apr-11 18:33S 27°22' E 153°10'9 9.5
2014-Apr-11 17:33S 27°15' E 153°18'1211.8
2014-Apr-11 16:34S 27°03' E 153°18'1515.5
2014-Apr-11 15:34S 26°50' E 153°09'1212.2
2014-Apr-11 14:33S 26°39' E 153°15'1313.2
2014-Apr-11 13:34S 26°27' E 153°21'1313.1
2014-Apr-11 12:33S 26°14' E 153°23'1713.5
2014-Apr-11 11:16S 25°57' E 153°26'1413.4
2014-Apr-11 10:15S 25°43' E 153°28'54613.6
2014-Apr-09 18:00S 16°42' E 154°42'3010.0 090 / 301007.810.8 2.027.024.128.0
2014-Apr-09 15:00S 16°12' E 154°42'   080 / 351008.710.8 2.527.025.629.0

Dump ship's entire track history

sailing weather and tide predictions

Pacific Dawn — 2AGH7 — position and weather